createdAt,value
2023-04-20T00:00:35.025Z,394.00
2023-04-20T00:01:35.095Z,396.00
2023-04-20T00:02:35.160Z,396.00
2023-04-20T00:03:35.374Z,399.00
2023-04-20T00:04:35.288Z,399.00
2023-04-20T00:05:35.499Z,397.00
2023-04-20T00:06:35.405Z,395.00
2023-04-20T00:07:35.389Z,393.00
2023-04-20T00:08:35.468Z,390.00
2023-04-20T00:09:35.477Z,389.00
2023-04-20T00:10:35.553Z,388.00
2023-04-20T00:11:35.562Z,389.00
2023-04-20T00:12:35.581Z,390.00
2023-04-20T00:13:35.689Z,390.00
2023-04-20T00:14:35.691Z,391.00
2023-04-20T00:15:35.748Z,394.00
2023-04-20T00:16:35.817Z,395.00
2023-04-20T00:17:35.845Z,396.00
2023-04-20T00:18:35.875Z,393.00
2023-04-20T00:19:35.873Z,392.00
2023-04-20T00:20:35.889Z,391.00
2023-04-20T00:21:35.924Z,393.00
2023-04-20T00:22:35.957Z,395.00
2023-04-20T00:23:36.006Z,395.00
2023-04-20T00:24:36.072Z,395.00
2023-04-20T00:25:36.097Z,395.00
2023-04-20T00:26:36.139Z,395.00
2023-04-20T00:27:36.149Z,391.00
2023-04-20T00:28:36.222Z,390.00
2023-04-20T00:29:36.257Z,391.00
2023-04-20T00:30:36.322Z,391.00
2023-04-20T00:31:36.328Z,393.00
2023-04-20T00:32:36.395Z,392.00
2023-04-20T00:33:36.931Z,390.00
2023-04-20T00:34:36.455Z,388.00
2023-04-20T00:35:36.508Z,390.00
2023-04-20T00:36:36.533Z,390.00
2023-04-20T00:37:36.557Z,391.00
2023-04-20T00:38:36.625Z,391.00
2023-04-20T00:39:36.671Z,391.00
2023-04-20T00:40:36.704Z,391.00
2023-04-20T00:41:36.714Z,392.00
2023-04-20T00:42:36.776Z,393.00
2023-04-20T00:43:36.832Z,394.00
2023-04-20T00:44:36.895Z,393.00
2023-04-20T00:45:36.909Z,392.00
2023-04-20T00:46:37.026Z,392.00
2023-04-20T00:47:36.997Z,392.00
2023-04-20T00:48:37.006Z,390.00
2023-04-20T00:49:37.027Z,389.00
2023-04-20T00:50:37.085Z,388.00
2023-04-20T00:51:37.107Z,383.00
2023-04-20T00:52:37.134Z,382.00
2023-04-20T00:53:37.174Z,386.00
2023-04-20T00:54:37.186Z,392.00
2023-04-20T00:55:37.212Z,394.00
2023-04-20T00:56:37.234Z,395.00
2023-04-20T00:57:37.262Z,394.00
2023-04-20T00:58:37.253Z,394.00
2023-04-20T00:59:37.297Z,387.00
2023-04-20T01:00:37.318Z,387.00
2023-04-20T01:01:37.444Z,388.00
2023-04-20T01:02:37.489Z,386.00
2023-04-20T01:03:37.553Z,390.00
2023-04-20T01:05:37.509Z,388.00
2023-04-20T01:06:37.567Z,388.00
2023-04-20T01:07:37.580Z,390.00
2023-04-20T01:08:37.555Z,389.00
2023-04-20T01:09:37.618Z,390.00
2023-04-20T01:10:37.648Z,388.00
2023-04-20T01:11:37.640Z,388.00
2023-04-20T01:12:37.641Z,386.00
2023-04-20T01:13:37.665Z,389.00
2023-04-20T01:14:37.714Z,389.00
2023-04-20T01:15:37.782Z,390.00
2023-04-20T01:16:37.838Z,392.00
2023-04-20T01:17:37.854Z,394.00
2023-04-20T01:18:37.845Z,391.00
2023-04-20T01:19:37.874Z,388.00
2023-04-20T01:20:37.918Z,392.00
2023-04-20T01:21:37.963Z,394.00
2023-04-20T01:22:38.001Z,397.00
2023-04-20T01:23:38.068Z,393.00
2023-04-20T01:24:38.144Z,392.00
2023-04-20T01:25:38.174Z,390.00
2023-04-20T01:26:38.196Z,390.00
2023-04-20T01:27:38.223Z,393.00
2023-04-20T01:28:38.299Z,394.00
2023-04-20T01:29:38.317Z,394.00
2023-04-20T01:30:38.392Z,395.00
2023-04-20T01:31:38.379Z,395.00
2023-04-20T01:32:38.445Z,394.00
2023-04-20T01:33:38.444Z,393.00
2023-04-20T01:34:38.522Z,392.00
2023-04-20T01:35:38.497Z,393.00
2023-04-20T01:36:38.508Z,395.00
2023-04-20T01:37:38.577Z,392.00
2023-04-20T01:38:38.618Z,392.00
2023-04-20T01:39:38.739Z,390.00
2023-04-20T01:40:38.667Z,388.00
2023-04-20T01:41:38.654Z,390.00
2023-04-20T01:42:38.777Z,389.00
2023-04-20T01:43:38.738Z,391.00
2023-04-20T01:44:38.820Z,393.00
2023-04-20T01:45:38.862Z,394.00
2023-04-20T01:46:38.860Z,398.00
2023-04-20T01:47:38.870Z,395.00
2023-04-20T01:48:38.858Z,394.00
2023-04-20T01:49:38.862Z,392.00
2023-04-20T01:50:38.886Z,390.00
2023-04-20T01:51:38.923Z,391.00
2023-04-20T01:52:38.951Z,391.00
2023-04-20T01:53:39.001Z,390.00
2023-04-20T01:54:39.016Z,391.00
2023-04-20T01:55:39.084Z,390.00
2023-04-20T01:56:39.078Z,391.00
2023-04-20T01:57:39.124Z,391.00
2023-04-20T01:58:39.330Z,394.00
2023-04-20T01:59:39.189Z,395.00
2023-04-20T02:00:39.237Z,395.00
2023-04-20T02:01:39.232Z,392.00
2023-04-20T02:02:39.452Z,391.00
2023-04-20T02:03:39.388Z,393.00
2023-04-20T02:04:39.338Z,394.00
2023-04-20T02:05:39.368Z,394.00
2023-04-20T02:06:39.392Z,395.00
2023-04-20T02:07:39.444Z,393.00
2023-04-20T02:08:39.456Z,391.00
2023-04-20T02:09:39.456Z,390.00
2023-04-20T02:10:39.475Z,390.00
2023-04-20T02:11:39.495Z,385.00
2023-04-20T02:12:39.552Z,385.00
2023-04-20T02:13:39.613Z,386.00
2023-04-20T02:14:39.678Z,387.00
2023-04-20T02:15:39.623Z,389.00
2023-04-20T02:16:39.686Z,388.00
2023-04-20T02:17:39.708Z,390.00
2023-04-20T02:18:39.783Z,392.00
2023-04-20T02:19:39.741Z,393.00
2023-04-20T02:20:39.804Z,393.00
2023-04-20T02:21:39.799Z,392.00
2023-04-20T02:22:39.840Z,391.00
2023-04-20T02:23:39.849Z,392.00
2023-04-20T02:24:39.933Z,393.00
2023-04-20T02:25:39.935Z,393.00
2023-04-20T02:26:39.978Z,391.00
2023-04-20T02:27:39.985Z,391.00
2023-04-20T02:28:40.008Z,390.00
2023-04-20T02:29:40.057Z,393.00
2023-04-20T02:30:40.036Z,392.00
2023-04-20T02:31:40.200Z,391.00
2023-04-20T02:32:40.160Z,390.00
2023-04-20T02:33:40.127Z,390.00
2023-04-20T02:34:40.146Z,392.00
2023-04-20T02:35:40.133Z,392.00
2023-04-20T02:36:40.185Z,389.00
2023-04-20T02:37:40.186Z,387.00
2023-04-20T02:38:40.230Z,385.00
2023-04-20T02:39:40.192Z,385.00
2023-04-20T02:40:40.196Z,385.00
2023-04-20T02:41:40.203Z,385.00
2023-04-20T02:42:40.207Z,385.00
2023-04-20T02:43:40.218Z,387.00
2023-04-20T02:44:40.220Z,389.00
2023-04-20T02:45:40.265Z,390.00
2023-04-20T02:46:40.362Z,391.00
2023-04-20T02:47:40.376Z,390.00
2023-04-20T02:48:40.339Z,389.00
2023-04-20T02:49:40.572Z,390.00
2023-04-20T02:50:40.353Z,390.00
2023-04-20T02:51:40.390Z,388.00
2023-04-20T02:52:40.405Z,390.00
2023-04-20T02:53:40.425Z,391.00
2023-04-20T02:54:40.487Z,393.00
2023-04-20T02:55:40.482Z,392.00
2023-04-20T02:56:40.509Z,390.00
2023-04-20T02:57:40.564Z,388.00
2023-04-20T02:58:40.572Z,385.00
2023-04-20T02:59:40.582Z,388.00
2023-04-20T03:00:40.625Z,388.00
2023-04-20T03:01:40.699Z,390.00
2023-04-20T03:02:40.876Z,391.00
2023-04-20T03:03:40.823Z,390.00
2023-04-20T03:04:40.814Z,389.00
2023-04-20T03:05:40.801Z,388.00
2023-04-20T03:06:40.814Z,390.00
2023-04-20T03:07:40.833Z,390.00
2023-04-20T03:08:40.867Z,388.00
2023-04-20T03:09:40.906Z,388.00
2023-04-20T03:10:40.894Z,389.00
2023-04-20T03:11:40.943Z,388.00
2023-04-20T03:12:40.925Z,388.00
2023-04-20T03:13:40.980Z,389.00
2023-04-20T03:14:40.977Z,391.00
2023-04-20T03:15:41.031Z,390.00
2023-04-20T03:16:41.072Z,390.00
2023-04-20T03:17:41.066Z,389.00
2023-04-20T03:18:41.086Z,391.00
2023-04-20T03:19:41.125Z,392.00
2023-04-20T03:20:41.168Z,392.00
2023-04-20T03:21:41.168Z,395.00
2023-04-20T03:22:41.208Z,395.00
2023-04-20T03:23:41.269Z,393.00
2023-04-20T03:24:41.271Z,393.00
2023-04-20T03:25:41.333Z,394.00
2023-04-20T03:26:41.410Z,395.00
2023-04-20T03:27:41.417Z,396.00
2023-04-20T03:28:41.460Z,399.00
2023-04-20T03:29:41.515Z,398.00
2023-04-20T03:30:41.539Z,394.00
2023-04-20T03:31:41.673Z,392.00
2023-04-20T03:32:41.630Z,394.00
2023-04-20T03:33:41.617Z,394.00
2023-04-20T03:34:41.641Z,391.00
2023-04-20T03:35:41.691Z,393.00
2023-04-20T03:36:41.705Z,395.00
2023-04-20T03:37:41.734Z,396.00
2023-04-20T03:38:41.807Z,395.00
2023-04-20T03:39:41.834Z,394.00
2023-04-20T03:40:41.826Z,392.00
2023-04-20T03:41:41.844Z,394.00
2023-04-20T03:42:41.868Z,395.00
2023-04-20T03:43:41.914Z,397.00
2023-04-20T03:44:41.931Z,398.00
2023-04-20T03:45:42.035Z,397.00
2023-04-20T03:46:41.985Z,395.00
2023-04-20T03:47:42.050Z,395.00
2023-04-20T03:48:42.050Z,395.00
2023-04-20T03:49:42.073Z,394.00
2023-04-20T03:50:42.082Z,393.00
2023-04-20T03:51:42.105Z,394.00
2023-04-20T03:52:42.132Z,395.00
2023-04-20T03:53:42.170Z,394.00
2023-04-20T03:54:42.206Z,396.00
2023-04-20T03:55:42.254Z,395.00
2023-04-20T03:56:42.284Z,393.00
2023-04-20T03:57:42.302Z,393.00
2023-04-20T03:58:42.329Z,394.00
2023-04-20T03:59:42.362Z,395.00
2023-04-20T04:00:42.447Z,396.00
2023-04-20T04:01:42.458Z,394.00
2023-04-20T04:02:42.554Z,394.00
2023-04-20T04:03:42.650Z,396.00
2023-04-20T04:04:42.684Z,395.00
2023-04-20T04:05:42.597Z,394.00
2023-04-20T04:06:42.629Z,394.00
2023-04-20T04:07:42.648Z,393.00
2023-04-20T04:08:42.626Z,392.00
2023-04-20T04:09:42.644Z,391.00
2023-04-20T04:10:42.681Z,393.00
2023-04-20T04:11:42.668Z,393.00
2023-04-20T04:12:42.703Z,394.00
2023-04-20T04:13:42.742Z,393.00
2023-04-20T04:14:42.751Z,391.00
2023-04-20T04:15:42.765Z,389.00
2023-04-20T04:16:42.821Z,387.00
2023-04-20T04:17:42.853Z,388.00
2023-04-20T04:18:42.849Z,389.00
2023-04-20T04:19:42.845Z,389.00
2023-04-20T04:20:42.921Z,387.00
2023-04-20T04:21:42.937Z,388.00
2023-04-20T04:22:42.979Z,386.00
2023-04-20T04:23:42.989Z,385.00
2023-04-20T04:24:43.049Z,383.00
2023-04-20T04:25:43.064Z,383.00
2023-04-20T04:26:43.106Z,384.00
2023-04-20T04:27:43.170Z,385.00
2023-04-20T04:28:43.183Z,387.00
2023-04-20T04:29:43.194Z,387.00
2023-04-20T04:30:43.239Z,388.00
2023-04-20T04:31:43.336Z,389.00
2023-04-20T04:32:43.291Z,392.00
2023-04-20T04:33:43.311Z,393.00
2023-04-20T04:34:43.336Z,393.00
2023-04-20T04:35:43.415Z,392.00
2023-04-20T04:36:43.376Z,392.00
2023-04-20T04:37:43.395Z,392.00
2023-04-20T04:38:43.504Z,391.00
2023-04-20T04:39:43.450Z,390.00
2023-04-20T04:40:43.454Z,391.00
2023-04-20T04:41:43.481Z,389.00
2023-04-20T04:42:43.475Z,389.00
2023-04-20T04:43:43.513Z,389.00
2023-04-20T04:44:43.544Z,390.00
2023-04-20T04:45:43.590Z,392.00
2023-04-20T04:46:43.646Z,391.00
2023-04-20T04:47:43.673Z,390.00
2023-04-20T04:48:43.653Z,390.00
2023-04-20T04:49:43.675Z,391.00
2023-04-20T04:50:43.709Z,390.00
2023-04-20T04:51:43.738Z,389.00
2023-04-20T04:52:43.752Z,389.00
2023-04-20T04:53:43.778Z,392.00
2023-04-20T04:54:43.899Z,392.00
2023-04-20T04:55:43.849Z,391.00
2023-04-20T04:56:43.884Z,389.00
2023-04-20T04:57:43.930Z,387.00
2023-04-20T04:58:43.941Z,383.00
2023-04-20T04:59:43.956Z,384.00
2023-04-20T05:00:43.980Z,386.00
2023-04-20T05:01:44.087Z,386.00
2023-04-20T05:02:44.153Z,388.00
2023-04-20T05:03:44.241Z,390.00
2023-04-20T05:04:44.287Z,390.00
2023-04-20T05:05:44.248Z,388.00
2023-04-20T05:06:44.304Z,388.00
2023-04-20T05:07:44.355Z,386.00
2023-04-20T05:08:44.396Z,387.00
2023-04-20T05:09:44.464Z,385.00
2023-04-20T05:10:44.508Z,386.00
2023-04-20T05:11:44.550Z,387.00
2023-04-20T05:12:44.630Z,386.00
2023-04-20T05:13:44.660Z,384.00
2023-04-20T05:14:44.676Z,381.00
2023-04-20T05:15:44.756Z,384.00
2023-04-20T05:16:44.901Z,386.00
2023-04-20T05:17:44.871Z,385.00
2023-04-20T05:18:44.865Z,387.00
2023-04-20T05:19:44.915Z,386.00
2023-04-20T05:20:44.988Z,388.00
2023-04-20T05:21:45.035Z,389.00
2023-04-20T05:22:45.114Z,387.00
2023-04-20T05:23:45.200Z,384.00
2023-04-20T05:24:45.217Z,384.00
2023-04-20T05:25:45.295Z,383.00
2023-04-20T05:26:45.329Z,383.00
2023-04-20T05:27:45.435Z,387.00
2023-04-20T05:28:45.472Z,388.00
2023-04-20T05:29:45.550Z,386.00
2023-04-20T05:30:45.596Z,385.00
2023-04-20T05:31:45.697Z,384.00
2023-04-20T05:32:46.436Z,384.00
2023-04-20T05:33:45.796Z,386.00
2023-04-20T05:34:45.858Z,385.00
2023-04-20T05:35:45.904Z,383.00
2023-04-20T05:36:45.950Z,382.00
2023-04-20T05:37:46.017Z,383.00
2023-04-20T05:38:46.101Z,386.00
2023-04-20T05:39:46.158Z,385.00
2023-04-20T05:40:46.363Z,385.00
2023-04-20T05:41:46.296Z,385.00
2023-04-20T05:42:46.341Z,389.00
2023-04-20T05:43:46.399Z,388.00
2023-04-20T05:44:46.476Z,390.00
2023-04-20T05:45:46.656Z,388.00
2023-04-20T05:46:46.579Z,389.00
2023-04-20T05:47:46.735Z,386.00
2023-04-20T05:48:47.044Z,387.00
2023-04-20T05:49:46.770Z,428.00
2023-04-20T05:50:46.845Z,428.00
2023-04-20T05:51:46.913Z,429.00
2023-04-20T05:52:47.014Z,461.00
2023-04-20T05:53:47.072Z,509.00
2023-04-20T05:54:47.085Z,510.00
2023-04-20T05:55:47.122Z,515.00
2023-04-20T05:56:47.174Z,558.00
2023-04-20T05:57:47.233Z,599.00
2023-04-20T05:58:47.681Z,658.00
2023-04-20T05:59:47.304Z,666.00
2023-04-20T06:00:47.337Z,678.00
2023-04-20T06:01:47.343Z,699.00
2023-04-20T06:02:47.504Z,702.00
2023-04-20T06:03:47.741Z,703.00
2023-04-20T06:04:47.537Z,749.00
2023-04-20T06:05:47.449Z,764.00
2023-04-20T06:06:47.457Z,853.00
2023-04-20T06:07:47.485Z,879.00
2023-04-20T06:08:47.498Z,856.00
2023-04-20T06:09:47.507Z,845.00
2023-04-20T06:10:47.501Z,851.00
2023-04-20T06:11:47.496Z,858.00
2023-04-20T06:12:47.574Z,872.00
2023-04-20T06:13:47.570Z,918.00
2023-04-20T06:14:47.551Z,955.00
2023-04-20T06:15:47.558Z,977.00
2023-04-20T06:16:47.564Z,1079.00
2023-04-20T06:17:47.570Z,1105.00
2023-04-20T06:18:47.567Z,1110.00
2023-04-20T06:19:47.581Z,1054.00
2023-04-20T06:20:47.568Z,1082.00
2023-04-20T06:21:47.583Z,1046.00
2023-04-20T06:22:47.608Z,887.00
2023-04-20T06:23:47.698Z,955.00
2023-04-20T06:24:47.929Z,906.00
2023-04-20T06:25:47.809Z,821.00
2023-04-20T06:26:47.894Z,941.00
2023-04-20T06:27:48.859Z,799.00
2023-04-20T06:28:47.905Z,782.00
2023-04-20T06:29:47.949Z,755.00
2023-04-20T06:30:48.017Z,755.00
2023-04-20T06:31:47.960Z,883.00
2023-04-20T06:32:47.937Z,925.00
2023-04-20T06:33:48.036Z,981.00
2023-04-20T06:34:48.013Z,996.00
2023-04-20T06:35:48.015Z,1007.00
2023-04-20T06:36:48.076Z,1031.00
2023-04-20T06:37:48.108Z,1059.00
2023-04-20T06:38:48.163Z,1085.00
2023-04-20T06:39:48.177Z,1111.00
2023-04-20T06:40:48.194Z,1121.00
2023-04-20T06:41:48.202Z,1139.00
2023-04-20T06:42:48.230Z,1148.00
2023-04-20T06:43:48.286Z,1210.00
2023-04-20T06:44:48.291Z,1237.00
2023-04-20T06:45:48.275Z,1240.00
2023-04-20T06:46:48.345Z,1280.00
2023-04-20T06:47:48.401Z,1289.00
2023-04-20T06:48:48.545Z,1297.00
2023-04-20T06:49:48.636Z,1310.00
2023-04-20T06:50:48.264Z,1360.00
2023-04-20T06:51:48.307Z,1408.00
2023-04-20T06:52:48.333Z,1432.00
2023-04-20T06:53:48.352Z,1438.00
2023-04-20T06:54:48.587Z,1442.00
2023-04-20T06:55:48.360Z,1452.00
2023-04-20T06:56:48.527Z,1498.00
2023-04-20T06:57:48.450Z,1508.00
2023-04-20T06:58:48.809Z,1525.00
2023-04-20T06:59:48.529Z,1533.00
2023-04-20T07:00:48.616Z,1553.00
2023-04-20T07:01:48.589Z,1564.00
2023-04-20T07:02:48.711Z,1580.00
2023-04-20T07:03:49.251Z,1627.00
2023-04-20T07:04:48.812Z,1661.00
2023-04-20T07:05:48.688Z,1694.00
2023-04-20T07:06:49.648Z,1699.00
2023-04-20T07:07:48.813Z,1745.00
2023-04-20T07:08:48.823Z,1742.00
2023-04-20T07:09:48.872Z,1749.00
2023-04-20T07:10:48.895Z,1741.00
2023-04-20T07:11:49.088Z,1741.00
2023-04-20T07:12:49.039Z,1752.00
2023-04-20T07:13:49.112Z,1751.00
2023-04-20T07:14:49.156Z,1782.00
2023-04-20T07:15:49.244Z,1801.00
2023-04-20T07:16:49.422Z,1819.00
2023-04-20T07:17:49.389Z,1835.00
2023-04-20T07:18:49.498Z,1859.00
2023-04-20T07:19:49.464Z,1872.00
2023-04-20T07:20:49.524Z,1902.00
2023-04-20T07:21:49.592Z,1931.00
2023-04-20T07:22:49.643Z,1947.00
2023-04-20T07:23:49.698Z,1945.00
2023-04-20T07:24:49.771Z,1939.00
2023-04-20T07:25:49.837Z,1958.00
2023-04-20T07:26:49.901Z,2010.00
2023-04-20T07:27:50.006Z,2012.00
2023-04-20T07:28:49.991Z,2013.00
2023-04-20T07:29:50.046Z,2032.00
2023-04-20T07:30:50.146Z,2040.00
2023-04-20T07:31:50.242Z,2049.00
2023-04-20T07:32:50.259Z,2066.00
2023-04-20T07:33:50.239Z,2062.00
2023-04-20T07:34:50.314Z,2116.00
2023-04-20T07:35:50.329Z,2197.00
2023-04-20T07:36:50.368Z,2193.00
2023-04-20T07:37:50.400Z,2197.00
2023-04-20T07:38:50.585Z,2196.00
2023-04-20T07:39:50.529Z,2185.00
2023-04-20T07:40:50.575Z,2133.00
2023-04-20T07:41:50.628Z,2108.00
2023-04-20T07:42:50.700Z,2104.00
2023-04-20T07:43:51.094Z,2097.00
2023-04-20T07:44:50.737Z,2079.00
2023-04-20T07:45:50.725Z,2059.00
2023-04-20T07:46:50.752Z,2044.00
2023-04-20T07:47:50.854Z,2037.00
2023-04-20T07:48:51.080Z,2028.00
2023-04-20T07:49:50.774Z,2018.00
2023-04-20T07:50:50.792Z,2001.00
2023-04-20T07:51:50.713Z,1971.00
2023-04-20T07:52:50.769Z,1876.00
2023-04-20T07:53:51.119Z,1712.00
2023-04-20T07:54:50.815Z,1616.00
2023-04-20T07:55:51.180Z,1523.00
2023-04-20T07:56:51.021Z,1502.00
2023-04-20T07:57:50.904Z,1371.00
2023-04-20T07:58:50.970Z,1406.00
2023-04-20T07:59:51.043Z,1361.00
2023-04-20T08:00:51.106Z,1298.00
2023-04-20T08:01:51.135Z,1273.00
2023-04-20T08:02:51.369Z,1229.00
2023-04-20T08:03:51.523Z,1235.00
2023-04-20T08:04:52.291Z,1212.00
2023-04-20T08:05:51.352Z,1157.00
2023-04-20T08:06:51.297Z,1115.00
2023-04-20T08:07:51.275Z,1095.00
2023-04-20T08:08:51.274Z,1071.00
2023-04-20T08:09:51.257Z,1050.00
2023-04-20T08:10:51.245Z,978.00
2023-04-20T08:11:51.337Z,986.00
2023-04-20T08:12:52.813Z,979.00
2023-04-20T08:13:51.844Z,963.00
2023-04-20T08:15:51.269Z,921.00
2023-04-20T08:16:51.458Z,913.00
2023-04-20T08:17:51.300Z,892.00
2023-04-20T08:18:51.271Z,883.00
2023-04-20T08:19:51.880Z,874.00
2023-04-20T08:20:51.332Z,843.00
2023-04-20T08:21:51.305Z,840.00
2023-04-20T08:22:51.270Z,800.00
2023-04-20T08:23:51.337Z,779.00
2023-04-20T08:24:51.346Z,775.00
2023-04-20T08:25:51.334Z,776.00
2023-04-20T08:26:51.326Z,777.00
2023-04-20T08:27:51.354Z,777.00
2023-04-20T08:28:51.370Z,767.00
2023-04-20T08:29:51.368Z,766.00
2023-04-20T08:30:51.376Z,757.00
2023-04-20T08:31:51.884Z,755.00
2023-04-20T08:32:51.436Z,751.00
2023-04-20T08:33:51.396Z,742.00
2023-04-20T08:34:51.444Z,729.00
2023-04-20T08:35:51.421Z,728.00
2023-04-20T08:36:51.430Z,729.00
2023-04-20T08:37:51.397Z,724.00
2023-04-20T08:38:51.582Z,724.00
2023-04-20T08:39:51.420Z,717.00
2023-04-20T08:40:51.478Z,716.00
2023-04-20T08:41:51.401Z,713.00
2023-04-20T08:42:51.431Z,698.00
2023-04-20T08:43:51.420Z,692.00
2023-04-20T08:44:51.432Z,687.00
2023-04-20T08:45:51.421Z,686.00
2023-04-20T08:46:51.633Z,693.00
2023-04-20T08:47:51.483Z,705.00
2023-04-20T08:48:51.416Z,705.00
2023-04-20T08:49:51.397Z,706.00
2023-04-20T08:50:51.382Z,706.00
2023-04-20T08:51:51.411Z,657.00
2023-04-20T08:52:51.374Z,672.00
2023-04-20T08:53:51.427Z,689.00
2023-04-20T08:54:56.767Z,792.00
2023-04-20T08:55:52.393Z,811.00
2023-04-20T08:56:51.365Z,816.00
2023-04-20T08:57:51.359Z,825.00
2023-04-20T08:58:51.350Z,875.00
2023-04-20T08:59:51.355Z,890.00
2023-04-20T09:00:51.337Z,873.00
2023-04-20T09:01:51.360Z,862.00
2023-04-20T09:02:51.502Z,885.00
2023-04-20T09:03:51.420Z,910.00
2023-04-20T09:04:51.398Z,957.00
2023-04-20T09:05:51.322Z,959.00
2023-04-20T09:06:51.329Z,964.00
2023-04-20T09:07:51.357Z,983.00
2023-04-20T09:08:51.410Z,993.00
2023-04-20T09:09:51.416Z,1018.00
2023-04-20T09:10:51.440Z,1033.00
2023-04-20T09:11:51.372Z,1043.00
2023-04-20T09:12:51.361Z,1058.00
2023-04-20T09:13:51.349Z,1088.00
2023-04-20T09:14:51.393Z,1108.00
2023-04-20T09:15:51.424Z,1121.00
2023-04-20T09:16:51.544Z,1129.00
2023-04-20T09:17:51.424Z,1142.00
2023-04-20T09:18:51.368Z,1152.00
2023-04-20T09:19:51.365Z,1163.00
2023-04-20T09:20:51.387Z,1181.00
2023-04-20T09:21:51.379Z,1241.00
2023-04-20T09:22:51.397Z,1270.00
2023-04-20T09:23:51.397Z,1277.00
2023-04-20T09:24:51.409Z,1336.00
2023-04-20T09:25:51.385Z,1316.00
2023-04-20T09:26:51.399Z,1316.00
2023-04-20T09:27:51.381Z,1372.00
2023-04-20T09:28:51.417Z,1475.00
2023-04-20T09:29:51.396Z,1381.00
2023-04-20T09:30:51.371Z,1385.00
2023-04-20T09:31:51.448Z,1413.00
2023-04-20T09:32:51.411Z,1406.00
2023-04-20T09:33:51.402Z,1405.00
2023-04-20T09:34:51.635Z,1421.00
2023-04-20T09:35:51.494Z,1456.00
2023-04-20T09:36:51.473Z,1467.00
2023-04-20T09:37:51.517Z,1509.00
2023-04-20T09:38:51.561Z,1505.00
2023-04-20T09:39:51.624Z,1512.00
2023-04-20T09:40:51.623Z,1563.00
2023-04-20T09:41:51.732Z,1559.00
2023-04-20T09:42:51.741Z,1573.00
2023-04-20T09:43:51.820Z,1578.00
2023-04-20T09:44:52.145Z,1585.00
2023-04-20T09:45:51.995Z,1592.00
2023-04-20T09:46:51.907Z,1591.00
2023-04-20T09:47:52.017Z,1608.00
2023-04-20T09:48:51.978Z,1632.00
2023-04-20T09:49:52.127Z,1653.00
2023-04-20T09:50:52.128Z,1673.00
2023-04-20T09:51:52.134Z,1682.00
2023-04-20T09:52:52.192Z,1727.00
2023-04-20T09:53:53.016Z,1743.00
2023-04-20T09:54:52.342Z,1743.00
2023-04-20T09:55:52.433Z,1750.00
2023-04-20T09:56:52.469Z,1776.00
2023-04-20T09:57:52.505Z,1786.00
2023-04-20T09:58:52.594Z,1788.00
2023-04-20T09:59:53.319Z,1782.00
2023-04-20T10:00:52.775Z,1789.00
2023-04-20T10:01:52.777Z,1795.00
2023-04-20T10:02:52.958Z,1802.00
2023-04-20T10:03:53.047Z,1813.00
2023-04-20T10:04:52.939Z,1853.00
2023-04-20T10:05:53.584Z,1894.00
2023-04-20T10:06:53.038Z,1963.00
2023-04-20T10:07:53.073Z,1948.00
2023-04-20T10:08:53.133Z,1947.00
2023-04-20T10:09:53.202Z,1951.00
2023-04-20T10:10:53.187Z,1975.00
2023-04-20T10:11:55.136Z,1981.00
2023-04-20T10:12:53.262Z,1984.00
2023-04-20T10:13:53.268Z,1988.00
2023-04-20T10:14:53.405Z,1994.00
2023-04-20T10:15:53.271Z,2007.00
2023-04-20T10:16:53.269Z,2017.00
2023-04-20T10:17:53.276Z,2025.00
2023-04-20T10:18:53.296Z,2027.00
2023-04-20T10:19:53.211Z,2048.00
2023-04-20T10:20:53.198Z,2052.00
2023-04-20T10:21:53.182Z,2052.00
2023-04-20T10:22:53.178Z,2055.00
2023-04-20T10:23:53.214Z,2062.00
2023-04-20T10:24:53.212Z,2066.00
2023-04-20T10:25:53.150Z,2069.00
2023-04-20T10:26:53.148Z,2079.00
2023-04-20T10:27:53.152Z,2147.00
2023-04-20T10:28:53.175Z,2139.00
2023-04-20T10:29:53.130Z,2163.00
2023-04-20T10:30:53.755Z,2172.00
2023-04-20T10:31:53.140Z,2188.00
2023-04-20T10:32:53.131Z,2200.00
2023-04-20T10:33:53.159Z,2199.00
2023-04-20T10:34:53.206Z,2191.00
2023-04-20T10:35:53.244Z,2194.00
2023-04-20T10:36:53.283Z,2188.00
2023-04-20T10:37:53.423Z,2190.00
2023-04-20T10:38:53.434Z,2179.00
2023-04-20T10:39:53.660Z,2168.00
2023-04-20T10:40:53.584Z,2152.00
2023-04-20T10:41:53.678Z,2144.00
2023-04-20T10:42:53.647Z,2132.00
2023-04-20T10:43:53.675Z,2123.00
2023-04-20T10:44:53.769Z,2108.00
2023-04-20T10:45:53.779Z,2092.00
2023-04-20T10:46:53.906Z,2080.00
2023-04-20T10:47:53.795Z,2064.00
2023-04-20T10:48:53.830Z,2053.00
2023-04-20T10:49:53.768Z,2038.00
2023-04-20T10:50:53.774Z,2023.00
2023-04-20T10:51:54.652Z,2014.00
2023-04-20T10:52:53.798Z,1994.00
2023-04-20T10:53:53.798Z,1985.00
2023-04-20T10:54:53.787Z,1972.00
2023-04-20T10:55:53.808Z,1961.00
2023-04-20T10:56:53.813Z,1960.00
2023-04-20T10:57:53.819Z,1956.00
2023-04-20T10:58:53.770Z,1951.00
2023-04-20T10:59:53.839Z,1952.00
2023-04-20T11:00:53.795Z,1952.00
2023-04-20T11:01:53.885Z,1951.00
2023-04-20T11:02:53.968Z,1951.00
2023-04-20T11:03:53.824Z,1952.00
2023-04-20T11:04:53.844Z,1949.00
2023-04-20T11:05:53.822Z,1942.00
2023-04-20T11:06:53.871Z,1936.00
2023-04-20T11:07:53.859Z,1931.00
2023-04-20T11:08:53.867Z,1926.00
2023-04-20T11:09:53.877Z,1919.00
2023-04-20T11:10:53.860Z,1918.00
2023-04-20T11:11:53.876Z,1919.00
2023-04-20T11:12:53.876Z,1916.00
2023-04-20T11:13:53.851Z,1912.00
2023-04-20T11:14:53.846Z,1908.00
2023-04-20T11:15:53.864Z,1904.00
2023-04-20T11:16:53.914Z,1905.00
2023-04-20T11:17:53.868Z,1901.00
2023-04-20T11:18:53.883Z,1894.00
2023-04-20T11:19:53.884Z,1890.00
2023-04-20T11:20:53.946Z,1890.00
2023-04-20T11:21:53.869Z,1891.00
2023-04-20T11:22:54.827Z,1886.00
2023-04-20T11:23:53.875Z,1882.00
2023-04-20T11:24:53.901Z,1880.00
2023-04-20T11:25:53.912Z,1872.00
2023-04-20T11:26:53.879Z,1866.00
2023-04-20T11:27:53.898Z,1861.00
2023-04-20T11:28:55.524Z,1859.00
2023-04-20T11:29:54.155Z,1857.00
2023-04-20T11:30:54.039Z,1851.00
2023-04-20T11:31:54.079Z,1851.00
2023-04-20T11:32:54.103Z,1851.00
2023-04-20T11:33:54.027Z,1852.00
2023-04-20T11:35:03.346Z,1853.00
2023-04-20T11:35:54.980Z,1852.00
2023-04-20T11:36:53.998Z,1847.00
2023-04-20T11:37:53.968Z,1841.00
2023-04-20T11:38:53.969Z,1839.00
2023-04-20T11:39:53.965Z,1835.00
2023-04-20T11:40:53.955Z,1833.00
2023-04-20T11:41:53.941Z,1832.00
2023-04-20T11:42:53.938Z,1831.00
2023-04-20T11:43:53.936Z,1832.00
2023-04-20T11:44:53.982Z,1828.00
2023-04-20T11:45:54.000Z,1830.00
2023-04-20T11:46:53.935Z,1829.00
2023-04-20T11:47:53.957Z,1823.00
2023-04-20T11:48:53.909Z,1818.00
2023-04-20T11:49:53.881Z,1816.00
2023-04-20T11:50:53.938Z,1810.00
2023-04-20T11:51:53.935Z,1807.00
2023-04-20T11:52:53.936Z,1806.00
2023-04-20T11:53:53.957Z,1804.00
2023-04-20T11:54:54.003Z,1807.00
2023-04-20T11:55:54.021Z,1804.00
2023-04-20T11:56:54.024Z,1798.00
2023-04-20T11:57:54.042Z,1790.00
2023-04-20T11:58:54.069Z,1782.00
2023-04-20T11:59:54.108Z,1775.00
2023-04-20T12:00:54.110Z,1771.00
2023-04-20T12:01:54.141Z,1770.00
2023-04-20T12:02:54.241Z,1767.00
2023-04-20T12:03:54.345Z,1762.00
2023-04-20T12:04:54.298Z,1755.00
2023-04-20T12:05:54.281Z,1753.00
2023-04-20T12:06:54.248Z,1747.00
2023-04-20T12:07:54.263Z,1736.00
2023-04-20T12:08:54.293Z,1726.00
2023-04-20T12:09:54.278Z,1720.00
2023-04-20T12:10:55.995Z,1711.00
2023-04-20T12:11:54.300Z,1690.00
2023-04-20T12:12:54.316Z,1673.00
2023-04-20T12:13:54.324Z,1672.00
2023-04-20T12:14:54.293Z,1672.00
2023-04-20T12:15:54.370Z,1668.00
2023-04-20T12:16:55.185Z,1663.00
2023-04-20T12:17:54.404Z,1662.00
2023-04-20T12:18:54.264Z,1663.00
2023-04-20T12:19:54.342Z,1660.00
2023-04-20T12:20:54.311Z,1656.00
2023-04-20T12:21:54.324Z,1650.00